Time;durP1;ratioP1;P1;durP2;ratioP2;P2;SDS_P1;SDS_P2;PMS_P1;PMS_P2;Temp;Humidity;BMP_temperature;BMP_pressure;BME280_temperature;BME280_humidity;BME280_pressure;Samples;Min_cycle;Max_cycle;Signal;HPM_P1;HPM_P2
2022/10/24 03:53:46;;;;;;;;;;;22.00;99.90;;;;;;5037279;28;19924;-78
2022/10/24 03:56:12;;;;;;;;;;;22.00;99.90;;;;;;5036689;28;19925;-78
2022/10/24 03:58:39;;;;;;;;;;;22.00;99.90;;;;;;5040886;28;19933;-81
2022/10/24 04:01:05;;;;;;;;;;;22.00;99.90;;;;;;5026724;28;20300;-80
2022/10/24 04:03:32;;;;;;;;;;;22.00;99.90;;;;;;5052847;23;19925;-75
2022/10/24 04:05:58;;;;;;;;;;;22.00;99.90;;;;;;5056816;28;19932;-76
2022/10/24 04:08:25;;;;;;;;;;;22.00;99.90;;;;;;5056781;28;19933;-74
2022/10/24 04:10:53;;;;;;;;;;;22.00;99.90;;;;;;5056564;28;20392;-75
2022/10/24 04:13:19;;;;;;;;;;;22.00;99.90;;;;;;5052321;28;19948;-75
2022/10/24 04:15:46;;;;;;;;;;;22.00;99.90;;;;;;5039565;28;19956;-77
2022/10/24 04:18:12;;;;;;;;;;;22.00;99.90;;;;;;5036806;28;19925;-77
2022/10/24 04:20:39;;;;;;;;;;;22.00;99.90;;;;;;5036513;28;20399;-78
2022/10/24 04:23:06;;;;;;;;;;;22.00;99.90;;;;;;5036954;28;19932;-78
2022/10/24 04:25:32;;;;;;;;;;;22.10;99.90;;;;;;5037365;28;19925;-77
2022/10/24 04:28:00;;;;;;;;;;;22.10;99.90;;;;;;5035589;28;20276;-77
2022/10/24 04:30:27;;;;;;;;;;;22.00;99.90;;;;;;5036792;28;19929;-77
2022/10/24 04:32:55;;;;;;;;;;;22.00;99.90;;;;;;5036472;28;19928;-78
2022/10/24 04:35:21;;;;;;;;;;;22.00;99.90;;;;;;5036375;28;19958;-76
2022/10/24 04:37:48;;;;;;;;;;;22.10;99.90;;;;;;5036440;28;19932;-76
2022/10/24 04:40:15;;;;;;;;;;;22.10;99.90;;;;;;5038458;28;19925;-80
2022/10/24 04:42:41;;;;;;;;;;;22.10;99.90;;;;;;5040728;28;19929;-80
2022/10/24 04:45:10;;;;;;;;;;;22.10;99.90;;;;;;5040717;28;19925;-84
2022/10/24 04:47:37;;;;;;;;;;;22.00;99.90;;;;;;5038863;28;20385;-80
2022/10/24 04:50:03;;;;;;;;;;;22.10;99.90;;;;;;5038447;28;20339;-76
2022/10/24 04:52:30;;;;;;;;;;;22.10;99.90;;;;;;5038244;28;19932;-77
2022/10/24 04:54:57;;;;;;;;;;;22.10;99.90;;;;;;5035661;28;20377;-77
2022/10/24 04:57:23;;;;;;;;;;;22.10;99.90;;;;;;5035493;28;20285;-76
2022/10/24 04:59:50;;;;;;;;;;;22.10;99.90;;;;;;5035764;28;19925;-77
2022/10/24 05:02:18;;;;;;;;;;;22.10;99.90;;;;;;5035715;28;20296;-76
2022/10/24 05:04:44;;;;;;;;;;;22.00;99.90;;;;;;5035365;28;19932;-76
2022/10/24 05:07:11;;;;;;;;;;;22.00;99.90;;;;;;5035614;28;19925;-77
2022/10/24 10:45:33;;;;;;;;;;;21.70;99.90;;;;;;5194439;23;19932;-85
2022/10/24 10:48:03;;;;;;;;;;;21.70;99.90;;;;;;5034642;28;20019;-85
2022/10/24 10:50:34;;;;;;;;;;;21.70;99.90;;;;;;5036338;28;19925;-86
2022/10/24 10:53:04;;;;;;;;;;;21.70;99.90;;;;;;5033942;28;19930;-85
2022/10/24 10:55:34;;;;;;;;;;;21.70;99.90;;;;;;5016412;28;19937;-86
2022/10/24 10:58:05;;;;;;;;;;;21.70;99.90;;;;;;5015291;28;20016;-84
2022/10/24 11:00:38;;;;;;;;;;;21.80;99.90;;;;;;5019622;28;19930;-84
2022/10/24 11:03:11;;;;;;;;;;;21.70;99.90;;;;;;5015434;28;20304;-84
2022/10/24 11:05:43;;;;;;;;;;;21.70;99.90;;;;;;5015561;28;19925;-84
2022/10/24 11:08:20;;;;;;;;;;;22.00;99.90;;;;;;5015585;28;19926;-84
2022/10/24 11:10:49;;;;;;;;;;;22.00;99.90;;;;;;5015436;28;19926;-83
2022/10/24 11:13:19;;;;;;;;;;;21.80;99.90;;;;;;5015454;28;19925;-83
2022/10/24 11:15:48;;;;;;;;;;;21.70;99.90;;;;;;5015081;28;19926;-84
2022/10/24 11:18:18;;;;;;;;;;;21.60;99.90;;;;;;5015143;28;19948;-84
2022/10/24 11:20:49;;;;;;;;;;;22.60;99.90;;;;;;5015132;28;20457;-84
2022/10/24 11:23:18;;;;;;;;;;;22.10;99.90;;;;;;5015682;28;19930;-83
2022/10/24 11:25:47;;;;;;;;;;;21.70;99.90;;;;;;5014950;28;19932;-84
2022/10/24 11:28:16;;;;;;;;;;;21.50;99.90;;;;;;5014476;28;19925;-85
2022/10/24 11:30:46;;;;;;;;;;;21.80;99.90;;;;;;5015522;28;20013;-83
2022/10/24 11:33:17;;;;;;;;;;;21.80;99.90;;;;;;5015470;28;19932;-83
2022/10/24 11:35:55;;;;;;;;;;;23.10;99.90;;;;;;5016003;28;20357;-84
2022/10/24 11:38:23;;;;;;;;;;;22.70;99.90;;;;;;5018827;28;19930;-84
2022/10/24 11:40:53;;;;;;;;;;;22.60;99.90;;;;;;5020214;28;20281;-84
2022/10/24 11:43:22;;;;;;;;;;;22.20;99.90;;;;;;5020089;28;19932;-84
2022/10/24 11:45:51;;;;;;;;;;;21.80;99.90;;;;;;5021071;28;19976;-85
2022/10/24 11:48:23;;;;;;;;;;;21.50;99.90;;;;;;5019286;28;19925;-84
2022/10/24 11:50:51;;;;;;;;;;;22.30;99.90;;;;;;5018531;28;19948;-85
2022/10/24 11:53:25;;;;;;;;;;;21.90;99.90;;;;;;5019160;28;19925;-84
2022/10/24 11:55:54;;;;;;;;;;;21.90;99.90;;;;;;5018091;28;19935;-84
2022/10/24 11:58:22;;;;;;;;;;;21.80;99.90;;;;;;5018708;28;19925;-84
2022/10/24 12:01:07;;;;;;;;;;;21.90;99.90;;;;;;5018069;28;19925;-84
2022/10/24 12:03:50;;;;;;;;;;;21.80;99.90;;;;;;5011737;28;19926;-83
2022/10/24 12:06:29;;;;;;;;;;;21.80;99.90;;;;;;5019934;28;19932;-84
2022/10/24 12:09:04;;;;;;;;;;;21.90;99.90;;;;;;5023184;28;20480;-83
2022/10/24 12:11:50;;;;;;;;;;;21.80;99.90;;;;;;5024004;28;19926;-83
2022/10/24 12:14:32;;;;;;;;;;;21.90;99.90;;;;;;5025470;28;19925;-83
2022/10/24 12:17:14;;;;;;;;;;;21.90;99.90;;;;;;5017936;28;19984;-83
2022/10/24 12:19:44;;;;;;;;;;;21.90;99.90;;;;;;5022520;28;20091;-85
2022/10/24 12:22:15;;;;;;;;;;;22.00;99.90;;;;;;5021137;28;19932;-86
2022/10/24 12:24:42;;;;;;;;;;;21.80;99.90;;;;;;5020916;28;19936;-86
2022/10/24 12:27:20;;;;;;;;;;;21.70;99.90;;;;;;5020595;28;19932;-86
2022/10/24 12:30:00;;;;;;;;;;;21.90;99.90;;;;;;5020485;28;19925;-86
2022/10/24 12:32:33;;;;;;;;;;;22.20;99.90;;;;;;5021401;28;20284;-85
2022/10/24 12:35:01;;;;;;;;;;;22.10;99.90;;;;;;5020821;28;19925;-85
2022/10/24 12:37:35;;;;;;;;;;;22.20;99.90;;;;;;5020683;28;20407;-85
2022/10/24 12:40:16;;;;;;;;;;;21.90;99.90;;;;;;5019167;28;20392;-85
2022/10/24 12:43:02;;;;;;;;;;;21.70;99.90;;;;;;5017038;28;19932;-86
2022/10/24 12:45:29;;;;;;;;;;;21.90;99.90;;;;;;5019697;28;19993;-86
2022/10/24 12:48:11;;;;;;;;;;;21.70;99.90;;;;;;5019363;28;19926;-85
2022/10/24 12:50:56;;;;;;;;;;;21.80;99.90;;;;;;5015027;28;20386;-86
2022/10/24 12:53:58;;;;;;;;;;;21.90;99.90;;;;;;5016943;28;20384;-86
2022/10/24 12:56:25;;;;;;;;;;;21.90;99.90;;;;;;5018376;28;19926;-84
2022/10/24 12:58:59;;;;;;;;;;;21.90;99.90;;;;;;5019579;28;20261;-84
2022/10/24 13:01:31;;;;;;;;;;;22.00;99.90;;;;;;5020294;28;19932;-86
2022/10/24 13:04:14;;;;;;;;;;;21.90;99.90;;;;;;5017796;28;19929;-86
2022/10/24 13:06:48;;;;;;;;;;;22.00;99.90;;;;;;5017540;28;19980;-86
2022/10/24 13:09:22;;;;;;;;;;;21.40;99.90;;;;;;5016247;28;20323;-86
2022/10/24 13:11:56;;;;;;;;;;;22.00;99.90;;;;;;5016375;28;19932;-86
2022/10/24 13:14:27;;;;;;;;;;;22.00;99.90;;;;;;5016442;28;19926;-86
2022/10/24 13:16:59;;;;;;;;;;;22.00;99.90;;;;;;5016265;28;19925;-86
2022/10/24 13:19:26;;;;;;;;;;;22.00;99.90;;;;;;5016350;28;19932;-86
2022/10/24 13:21:55;;;;;;;;;;;22.00;99.90;;;;;;5016009;28;19925;-86
2022/10/24 13:24:24;;;;;;;;;;;22.10;99.90;;;;;;5015963;28;19930;-86
2022/10/24 13:27:10;;;;;;;;;;;22.00;99.90;;;;;;5016206;28;19925;-86
2022/10/24 13:29:56;;;;;;;;;;;21.90;99.90;;;;;;5015274;28;20407;-87
2022/10/24 13:32:23;;;;;;;;;;;22.00;99.90;;;;;;5016125;28;19929;-86
2022/10/24 13:34:53;;;;;;;;;;;22.00;99.90;;;;;;5015461;28;20289;-85
2022/10/24 13:37:22;;;;;;;;;;;22.00;99.90;;;;;;5015966;28;19971;-85
2022/10/24 13:39:50;;;;;;;;;;;22.00;99.90;;;;;;5016308;28;19925;-84
2022/10/24 13:42:25;;;;;;;;;;;22.00;99.90;;;;;;5016070;28;19948;-86
2022/10/24 13:44:52;;;;;;;;;;;22.00;99.90;;;;;;5016342;28;19931;-86
2022/10/24 13:47:21;;;;;;;;;;;22.00;99.90;;;;;;5017518;28;19932;-86
2022/10/24 13:49:51;;;;;;;;;;;22.00;99.90;;;;;;5017230;28;19980;-86
2022/10/24 13:52:20;;;;;;;;;;;22.10;99.90;;;;;;5016205;28;20004;-86
2022/10/24 13:54:50;;;;;;;;;;;22.00;99.90;;;;;;5016256;28;19932;-85
2022/10/24 13:57:23;;;;;;;;;;;22.00;99.90;;;;;;5015659;28;19925;-86
2022/10/24 13:59:53;;;;;;;;;;;22.00;99.90;;;;;;5014257;28;19948;-86
2022/10/24 14:02:21;;;;;;;;;;;22.10;99.90;;;;;;5015734;28;19933;-87
2022/10/24 14:04:48;;;;;;;;;;;22.00;99.90;;;;;;5015534;28;20008;-86
2022/10/24 14:07:18;;;;;;;;;;;22.00;99.90;;;;;;5015198;28;19936;-86
2022/10/24 14:09:48;;;;;;;;;;;22.00;99.90;;;;;;5015150;28;19932;-87
2022/10/24 14:12:20;;;;;;;;;;;22.00;99.90;;;;;;5015353;28;20381;-86
2022/10/24 14:14:47;;;;;;;;;;;22.00;99.90;;;;;;5016006;28;19926;-86
2022/10/24 14:17:20;;;;;;;;;;;22.00;99.90;;;;;;5016195;28;19930;-88
2022/10/24 14:19:51;;;;;;;;;;;22.00;99.90;;;;;;5016160;28;20403;-87
2022/10/24 14:22:22;;;;;;;;;;;22.00;99.90;;;;;;5016730;28;19925;-87
2022/10/24 14:24:49;;;;;;;;;;;21.90;99.90;;;;;;5014464;28;20389;-88
2022/10/24 14:27:16;;;;;;;;;;;22.00;99.90;;;;;;5014589;28;19932;-88
2022/10/24 14:30:01;;;;;;;;;;;21.90;99.90;;;;;;5014705;28;19936;-88
2022/10/24 14:32:29;;;;;;;;;;;22.00;99.90;;;;;;5014963;28;19975;-88
2022/10/24 14:34:57;;;;;;;;;;;22.00;99.90;;;;;;5015064;28;19926;-88
2022/10/24 14:37:26;;;;;;;;;;;22.00;99.90;;;;;;5014737;28;19936;-87
2022/10/24 14:39:53;;;;;;;;;;;22.00;99.90;;;;;;5014733;28;19926;-87
2022/10/24 14:42:20;;;;;;;;;;;22.00;99.90;;;;;;5015032;28;19976;-85
2022/10/24 14:44:46;;;;;;;;;;;22.30;99.90;;;;;;5016799;28;20411;-86
2022/10/24 14:47:22;;;;;;;;;;;22.10;99.90;;;;;;5015698;28;19929;-86
2022/10/24 14:49:49;;;;;;;;;;;22.10;99.90;;;;;;5014745;28;19932;-86
2022/10/24 14:52:20;;;;;;;;;;;22.10;99.90;;;;;;5015318;28;19948;-85
2022/10/24 14:54:52;;;;;;;;;;;22.10;99.90;;;;;;5015390;28;19926;-86
2022/10/24 14:57:19;;;;;;;;;;;22.00;99.90;;;;;;5015895;28;19932;-85
2022/10/24 14:59:47;;;;;;;;;;;22.00;99.90;;;;;;5016069;28;19932;-85
2022/10/24 15:02:18;;;;;;;;;;;22.00;99.90;;;;;;5015483;28;20282;-85
2022/10/24 15:04:46;;;;;;;;;;;21.90;99.90;;;;;;5015660;28;20280;-84
2022/10/24 15:07:15;;;;;;;;;;;22.00;99.90;;;;;;5016459;28;20266;-85
2022/10/24 15:09:54;;;;;;;;;;;21.90;99.90;;;;;;5015987;28;19926;-86
2022/10/24 15:12:26;;;;;;;;;;;22.00;99.90;;;;;;5019829;28;20369;-85
2022/10/24 15:14:53;;;;;;;;;;;22.00;99.90;;;;;;5020831;28;19969;-85
2022/10/24 15:17:23;;;;;;;;;;;22.10;99.90;;;;;;5021638;28;19932;-85
2022/10/24 15:19:54;;;;;;;;;;;22.00;99.90;;;;;;5022101;28;19925;-85
2022/10/24 15:22:24;;;;;;;;;;;21.60;99.90;;;;;;5020823;28;19932;-85
2022/10/24 15:24:51;;;;;;;;;;;22.00;99.90;;;;;;5021041;28;19925;-85
2022/10/24 15:27:23;;;;;;;;;;;22.20;99.90;;;;;;5020506;28;19925;-83
2022/10/24 15:29:50;;;;;;;;;;;21.90;99.90;;;;;;5019525;28;20257;-84
2022/10/24 15:32:16;;;;;;;;;;;22.00;99.90;;;;;;5019943;28;19933;-85
2022/10/24 15:34:43;;;;;;;;;;;21.60;99.90;;;;;;5020208;28;19925;-85
2022/10/24 15:37:17;;;;;;;;;;;21.70;99.90;;;;;;5020039;28;19926;-85
2022/10/24 15:39:43;;;;;;;;;;;21.90;99.90;;;;;;5019880;28;19929;-84
2022/10/24 15:42:10;;;;;;;;;;;22.10;99.90;;;;;;5019058;28;19932;-84
2022/10/24 15:44:38;;;;;;;;;;;21.80;99.90;;;;;;5019055;28;19932;-84
2022/10/24 15:47:04;;;;;;;;;;;21.90;99.90;;;;;;5019228;28;19929;-84
2022/10/24 15:49:31;;;;;;;;;;;21.80;99.90;;;;;;5018641;28;19933;-84
2022/10/24 15:51:58;;;;;;;;;;;21.80;99.90;;;;;;5019378;28;19933;-84
2022/10/24 15:54:26;;;;;;;;;;;21.60;99.90;;;;;;5018695;28;19925;-85
2022/10/24 15:56:53;;;;;;;;;;;21.80;99.90;;;;;;5018924;28;19953;-85
2022/10/24 15:59:25;;;;;;;;;;;22.00;99.90;;;;;;5019049;28;20293;-85
2022/10/24 16:01:53;;;;;;;;;;;21.70;99.90;;;;;;5018980;28;19926;-85
2022/10/24 16:04:20;;;;;;;;;;;22.00;99.90;;;;;;5023581;28;19926;-85
2022/10/24 16:06:47;;;;;;;;;;;21.80;99.90;;;;;;5019106;28;19925;-85
2022/10/24 16:09:15;;;;;;;;;;;21.80;99.90;;;;;;5018691;28;19929;-84
2022/10/24 16:11:43;;;;;;;;;;;21.80;99.90;;;;;;5018316;28;19925;-85
2022/10/24 16:14:11;;;;;;;;;;;21.80;99.90;;;;;;5018725;28;19932;-85
2022/10/24 16:16:38;;;;;;;;;;;21.90;99.90;;;;;;5020427;28;19926;-85
2022/10/24 16:19:04;;;;;;;;;;;21.80;99.90;;;;;;5019256;28;19932;-85
2022/10/24 16:21:31;;;;;;;;;;;21.80;99.90;;;;;;5018245;28;19932;-84
2022/10/24 16:23:58;;;;;;;;;;;21.70;99.90;;;;;;5017903;28;19925;-85
2022/10/24 16:26:24;;;;;;;;;;;21.70;99.90;;;;;;5018113;28;19925;-84
2022/10/24 16:28:52;;;;;;;;;;;21.80;99.90;;;;;;5018376;28;19925;-84
2022/10/24 16:31:22;;;;;;;;;;;21.80;99.90;;;;;;5018056;28;19929;-84
2022/10/24 16:33:49;;;;;;;;;;;21.80;99.90;;;;;;5017936;28;19926;-85
2022/10/24 16:36:16;;;;;;;;;;;22.00;99.90;;;;;;5018119;28;19948;-85
2022/10/24 16:38:43;;;;;;;;;;;21.70;99.90;;;;;;5017307;28;19937;-86
2022/10/24 16:41:13;;;;;;;;;;;21.70;99.90;;;;;;5017246;28;19926;-85
2022/10/24 16:43:40;;;;;;;;;;;22.20;99.90;;;;;;5018129;28;19933;-86
2022/10/24 16:46:09;;;;;;;;;;;20.90;99.90;;;;;;5018016;28;19926;-85
2022/10/24 16:48:35;;;;;;;;;;;21.80;99.90;;;;;;5018286;28;19926;-85
2022/10/24 16:51:02;;;;;;;;;;;21.70;99.90;;;;;;5017128;28;20404;-85
2022/10/24 16:53:28;;;;;;;;;;;21.70;99.90;;;;;;5017482;28;19925;-85
2022/10/24 16:55:55;;;;;;;;;;;21.70;99.90;;;;;;5017138;28;19933;-85
2022/10/24 16:58:21;;;;;;;;;;;21.70;99.90;;;;;;5019008;28;19926;-80
2022/10/24 17:00:48;;;;;;;;;;;21.70;99.90;;;;;;5021747;28;20412;-79
2022/10/24 17:03:16;;;;;;;;;;;21.70;99.90;;;;;;5021323;28;19937;-79
2022/10/24 17:05:45;;;;;;;;;;;21.70;99.90;;;;;;5021015;28;20365;-79
2022/10/24 17:08:11;;;;;;;;;;;21.70;99.90;;;;;;5020510;28;19925;-79
2022/10/24 17:10:38;;;;;;;;;;;21.70;99.90;;;;;;5021006;28;20293;-79
2022/10/24 17:13:06;;;;;;;;;;;21.70;99.90;;;;;;5020844;28;19935;-79
2022/10/24 17:15:33;;;;;;;;;;;21.70;99.90;;;;;;5020570;28;19933;-79
2022/10/24 17:17:59;;;;;;;;;;;21.70;99.90;;;;;;5019737;28;19925;-84
2022/10/24 17:20:27;;;;;;;;;;;21.70;99.90;;;;;;5023420;28;19925;-85
2022/10/24 17:22:54;;;;;;;;;;;21.70;99.90;;;;;;5017712;28;19925;-84
2022/10/24 17:25:21;;;;;;;;;;;21.70;99.90;;;;;;5017078;28;19929;-85
2022/10/24 17:27:48;;;;;;;;;;;21.70;99.90;;;;;;5016898;28;20399;-83
2022/10/24 17:30:17;;;;;;;;;;;21.70;99.90;;;;;;5015891;28;19929;-86
2022/10/24 17:32:44;;;;;;;;;;;21.70;99.90;;;;;;5015487;28;20389;-86
2022/10/24 17:35:11;;;;;;;;;;;21.70;99.90;;;;;;5015496;28;19926;-86
2022/10/24 17:37:42;;;;;;;;;;;21.70;99.90;;;;;;5015555;28;20377;-86
2022/10/24 17:40:12;;;;;;;;;;;21.70;99.90;;;;;;5018560;28;19933;-84
2022/10/24 17:42:41;;;;;;;;;;;21.80;99.90;;;;;;5000262;28;21175;-87
2022/10/24 17:45:13;;;;;;;;;;;21.80;99.90;;;;;;4996360;28;19925;-87
2022/10/24 17:47:40;;;;;;;;;;;21.80;99.90;;;;;;4997189;28;20270;-86
2022/10/24 17:50:07;;;;;;;;;;;21.80;99.90;;;;;;4997234;28;20361;-86
2022/10/24 17:52:33;;;;;;;;;;;21.80;99.90;;;;;;4997291;28;19980;-87
2022/10/24 17:55:01;;;;;;;;;;;22.10;99.90;;;;;;4999327;28;19977;-84
2022/10/24 17:57:28;;;;;;;;;;;21.80;99.90;;;;;;5004404;28;19972;-83
2022/10/24 17:59:54;;;;;;;;;;;21.70;99.90;;;;;;5005626;28;19933;-84
2022/10/24 18:02:21;;;;;;;;;;;21.80;99.90;;;;;;5005944;28;19981;-84
2022/10/24 18:04:48;;;;;;;;;;;21.80;99.90;;;;;;5005954;28;19932;-84
2022/10/24 18:07:14;;;;;;;;;;;21.80;99.90;;;;;;5001723;28;19926;-84
2022/10/24 18:09:41;;;;;;;;;;;21.80;99.90;;;;;;4999109;28;19926;-84
2022/10/24 18:12:09;;;;;;;;;;;21.80;99.90;;;;;;4998146;28;19932;-84
2022/10/24 18:14:36;;;;;;;;;;;21.80;99.90;;;;;;4997161;28;19936;-84
2022/10/24 18:17:02;;;;;;;;;;;21.80;99.90;;;;;;4997987;28;19932;-84
2022/10/24 18:19:29;;;;;;;;;;;21.80;99.90;;;;;;4998583;28;20289;-84
2022/10/24 18:21:55;;;;;;;;;;;21.90;99.90;;;;;;4997754;28;20278;-84
2022/10/24 18:24:22;;;;;;;;;;;22.00;99.90;;;;;;4997886;28;20432;-84
2022/10/24 18:26:49;;;;;;;;;;;21.80;99.90;;;;;;4998525;28;19926;-84
2022/10/24 18:29:16;;;;;;;;;;;22.10;99.90;;;;;;4998874;28;19930;-82
2022/10/24 18:31:43;;;;;;;;;;;21.90;99.90;;;;;;4999980;28;19933;-84
2022/10/24 18:34:10;;;;;;;;;;;21.90;99.90;;;;;;4999702;28;19925;-83
2022/10/24 18:36:36;;;;;;;;;;;21.80;99.90;;;;;;5002382;28;19926;-83
2022/10/24 18:39:04;;;;;;;;;;;21.70;99.90;;;;;;5002772;28;19949;-83
2022/10/24 18:41:48;;;;;;;;;;;21.80;99.90;;;;;;5003195;28;20293;-83
2022/10/24 18:44:23;;;;;;;;;;;21.90;99.90;;;;;;4994270;28;19930;-83
2022/10/24 18:46:51;;;;;;;;;;;21.80;99.90;;;;;;5003383;28;19926;-83
2022/10/24 18:49:18;;;;;;;;;;;21.80;99.90;;;;;;5001875;28;19932;-83
2022/10/24 18:51:49;;;;;;;;;;;21.80;99.90;;;;;;5001276;28;19933;-83
2022/10/24 18:54:17;;;;;;;;;;;21.80;99.90;;;;;;5002152;28;19937;-83
2022/10/24 18:56:45;;;;;;;;;;;21.80;99.90;;;;;;5003548;28;20310;-83
2022/10/24 18:59:12;;;;;;;;;;;21.80;99.90;;;;;;5004184;28;19926;-83
2022/10/24 19:01:42;;;;;;;;;;;21.80;99.90;;;;;;5003698;28;19933;-83
2022/10/24 19:04:12;;;;;;;;;;;21.90;99.90;;;;;;5003892;28;20278;-83
2022/10/24 19:06:39;;;;;;;;;;;22.00;99.90;;;;;;5003997;28;19926;-83
2022/10/24 19:09:12;;;;;;;;;;;21.80;99.90;;;;;;5003839;28;19925;-84
2022/10/24 19:11:38;;;;;;;;;;;21.80;99.90;;;;;;5000547;28;19926;-84
2022/10/24 19:14:05;;;;;;;;;;;21.80;99.90;;;;;;5007671;28;19930;-83
2022/10/24 19:16:32;;;;;;;;;;;21.80;99.90;;;;;;5011196;28;19926;-83
2022/10/24 19:19:00;;;;;;;;;;;21.80;99.90;;;;;;5012287;28;19933;-83
2022/10/24 19:21:27;;;;;;;;;;;21.90;99.90;;;;;;5012243;28;20400;-83
2022/10/24 19:23:54;;;;;;;;;;;21.90;99.90;;;;;;5012787;28;19926;-83
2022/10/24 19:26:20;;;;;;;;;;;21.80;99.90;;;;;;5013032;28;19926;-83
2022/10/24 19:28:47;;;;;;;;;;;21.70;99.90;;;;;;5012843;28;19961;-83
2022/10/24 19:31:15;;;;;;;;;;;21.80;99.90;;;;;;5006963;28;19926;-84
2022/10/24 19:33:42;;;;;;;;;;;22.00;99.90;;;;;;5011024;28;19925;-84
2022/10/24 19:36:10;;;;;;;;;;;21.80;99.90;;;;;;5013062;28;19910;-84
2022/10/24 19:38:36;;;;;;;;;;;21.80;99.90;;;;;;5014005;28;19926;-84
2022/10/24 19:41:05;;;;;;;;;;;21.80;99.90;;;;;;5014973;28;19993;-84
2022/10/24 19:43:32;;;;;;;;;;;21.70;99.90;;;;;;5006531;28;19926;-81
2022/10/24 19:46:01;;;;;;;;;;;21.60;99.90;;;;;;4994975;28;20412;-80
2022/10/24 19:48:30;;;;;;;;;;;21.80;99.90;;;;;;4994519;28;19926;-80
2022/10/24 19:51:01;;;;;;;;;;;21.70;99.90;;;;;;4994439;28;19934;-80
2022/10/24 19:53:29;;;;;;;;;;;21.80;99.90;;;;;;4994401;28;19926;-80
2022/10/24 19:55:55;;;;;;;;;;;21.80;99.90;;;;;;4994380;28;19929;-80
2022/10/24 19:58:22;;;;;;;;;;;21.80;99.90;;;;;;4996369;28;19925;-80
2022/10/24 20:00:48;;;;;;;;;;;21.80;99.90;;;;;;4997980;28;19933;-80
2022/10/24 20:03:15;;;;;;;;;;;21.80;99.90;;;;;;4997956;28;19937;-80
2022/10/24 20:05:42;;;;;;;;;;;21.80;99.90;;;;;;4997813;28;19976;-80
2022/10/24 20:08:09;;;;;;;;;;;21.70;99.90;;;;;;4997608;28;20273;-80
2022/10/24 20:10:37;;;;;;;;;;;21.80;99.90;;;;;;4997719;28;19934;-80
2022/10/24 20:13:03;;;;;;;;;;;21.80;99.90;;;;;;4997998;28;19926;-80
2022/10/24 20:15:30;;;;;;;;;;;21.70;99.90;;;;;;4997933;28;19933;-80
2022/10/24 20:17:56;;;;;;;;;;;21.80;99.90;;;;;;4997628;28;19925;-81
2022/10/24 20:20:23;;;;;;;;;;;21.80;99.90;;;;;;4997756;28;19933;-81
2022/10/24 20:22:50;;;;;;;;;;;21.80;99.90;;;;;;4997976;28;19933;-81
2022/10/24 20:25:17;;;;;;;;;;;21.70;99.90;;;;;;4998443;28;19926;-81
2022/10/24 20:27:44;;;;;;;;;;;21.80;99.90;;;;;;4998219;28;19933;-81
2022/10/24 20:30:12;;;;;;;;;;;21.80;99.90;;;;;;5004856;28;19926;-81
2022/10/24 20:32:38;;;;;;;;;;;21.80;99.90;;;;;;5004475;28;20377;-81
2022/10/24 20:35:05;;;;;;;;;;;21.80;99.90;;;;;;5004436;28;19926;-81
2022/10/24 20:37:32;;;;;;;;;;;21.70;99.90;;;;;;5003115;28;20293;-81
2022/10/24 20:39:58;;;;;;;;;;;21.80;99.90;;;;;;5006319;28;19932;-81
2022/10/24 20:42:25;;;;;;;;;;;21.80;99.90;;;;;;5004618;28;19926;-81
2022/10/24 20:44:53;;;;;;;;;;;21.70;99.90;;;;;;5007299;28;19926;-81
2022/10/24 20:47:19;;;;;;;;;;;21.80;99.90;;;;;;5009024;28;19926;-81
2022/10/24 20:49:46;;;;;;;;;;;21.70;99.90;;;;;;5014063;28;19929;-81
2022/10/24 20:52:12;;;;;;;;;;;21.70;99.90;;;;;;5013691;28;19926;-81
2022/10/24 20:54:39;;;;;;;;;;;21.80;99.90;;;;;;5013607;28;19925;-81
2022/10/24 20:57:05;;;;;;;;;;;21.80;99.90;;;;;;5015222;28;19933;-81
2022/10/24 20:59:32;;;;;;;;;;;21.70;99.90;;;;;;5015102;28;19933;-81
2022/10/24 21:02:00;;;;;;;;;;;21.80;99.90;;;;;;5007483;28;19925;-81
2022/10/24 21:04:26;;;;;;;;;;;21.80;99.90;;;;;;5006043;28;19925;-80
2022/10/24 21:06:53;;;;;;;;;;;21.70;99.90;;;;;;5006889;28;19933;-80
2022/10/24 21:09:19;;;;;;;;;;;21.80;99.90;;;;;;5009369;28;19930;-83
2022/10/24 21:11:47;;;;;;;;;;;21.80;99.90;;;;;;5008812;28;19934;-80
2022/10/24 21:14:15;;;;;;;;;;;21.70;99.90;;;;;;5009539;28;19926;-81
2022/10/24 21:16:41;;;;;;;;;;;21.70;99.90;;;;;;5010098;28;19926;-81
2022/10/24 21:19:09;;;;;;;;;;;21.80;99.90;;;;;;5010707;28;19933;-81
2022/10/24 21:21:36;;;;;;;;;;;21.70;99.90;;;;;;5012038;28;19929;-81
2022/10/24 21:24:02;;;;;;;;;;;21.80;99.90;;;;;;5011361;28;20282;-81
2022/10/24 21:26:29;;;;;;;;;;;21.80;99.90;;;;;;5012460;28;19926;-81
2022/10/24 21:28:56;;;;;;;;;;;21.80;99.90;;;;;;5011476;28;19936;-81
2022/10/24 21:31:23;;;;;;;;;;;21.80;99.90;;;;;;5010311;28;19932;-81
2022/10/24 21:33:50;;;;;;;;;;;21.80;99.90;;;;;;5009008;28;19926;-81
2022/10/24 21:36:18;;;;;;;;;;;21.80;99.90;;;;;;5002659;28;20297;-81
2022/10/24 21:38:46;;;;;;;;;;;21.80;99.90;;;;;;4999054;28;19925;-81
2022/10/24 21:41:12;;;;;;;;;;;21.80;99.90;;;;;;4998437;28;19933;-81
2022/10/24 21:43:40;;;;;;;;;;;21.90;99.90;;;;;;4998491;28;19926;-81
2022/10/24 21:46:07;;;;;;;;;;;21.80;99.90;;;;;;4998111;28;19926;-81
2022/10/24 21:48:34;;;;;;;;;;;21.80;99.90;;;;;;4997773;28;19926;-81
2022/10/24 21:51:02;;;;;;;;;;;21.80;99.90;;;;;;4997958;28;19926;-81
2022/10/24 21:53:30;;;;;;;;;;;21.80;99.90;;;;;;4998115;28;19925;-80
2022/10/24 21:56:01;;;;;;;;;;;21.90;99.90;;;;;;4997237;28;19930;-80
2022/10/24 21:58:27;;;;;;;;;;;21.80;99.90;;;;;;4997449;28;19927;-80
2022/10/24 22:00:54;;;;;;;;;;;21.80;99.90;;;;;;4997059;28;19925;-81
2022/10/24 22:03:20;;;;;;;;;;;21.80;99.90;;;;;;4997943;28;19926;-81
2022/10/24 22:05:51;;;;;;;;;;;21.90;99.90;;;;;;4997160;28;19925;-81
2022/10/24 22:08:17;;;;;;;;;;;21.80;99.90;;;;;;4997129;28;20305;-81
2022/10/24 22:10:45;;;;;;;;;;;21.80;99.90;;;;;;4997315;28;19925;-81
2022/10/24 22:13:12;;;;;;;;;;;21.90;99.90;;;;;;4996901;28;19925;-81
2022/10/24 22:15:38;;;;;;;;;;;21.80;99.90;;;;;;4996937;28;19926;-81
2022/10/24 22:18:05;;;;;;;;;;;21.80;99.90;;;;;;4997216;28;19933;-81
2022/10/24 22:20:31;;;;;;;;;;;21.80;99.90;;;;;;4996629;28;19925;-81
2022/10/24 22:22:58;;;;;;;;;;;22.10;99.90;;;;;;4996730;28;19932;-80
2022/10/24 22:25:25;;;;;;;;;;;21.80;99.90;;;;;;4997044;28;19929;-81
2022/10/24 22:27:53;;;;;;;;;;;21.80;99.90;;;;;;4996566;28;20397;-81
2022/10/24 22:30:19;;;;;;;;;;;21.80;99.90;;;;;;4996533;28;19933;-81
2022/10/24 22:32:46;;;;;;;;;;;21.80;99.90;;;;;;4996636;28;19933;-81
2022/10/24 22:35:13;;;;;;;;;;;21.80;99.90;;;;;;4996508;28;20285;-80
2022/10/24 22:37:40;;;;;;;;;;;21.80;99.90;;;;;;4996866;28;19926;-81
